createdAt,value
2023-04-11T00:00:01.316Z,8.3
2023-04-11T00:01:01.536Z,8.3
2023-04-11T00:02:01.375Z,8.3
2023-04-11T00:03:01.505Z,8.3
2023-04-11T00:04:02.100Z,8.4
2023-04-11T00:05:01.422Z,8.4
2023-04-11T00:06:01.570Z,8.3
2023-04-11T00:07:01.464Z,8.3
2023-04-11T00:08:01.488Z,8.3
2023-04-11T00:09:01.384Z,8.3
2023-04-11T00:10:01.456Z,8.3
2023-04-11T00:11:01.357Z,8.2
2023-04-11T00:12:01.396Z,8.1
2023-04-11T00:13:01.343Z,8
2023-04-11T00:14:01.397Z,7.9
2023-04-11T00:15:02.393Z,7.8
2023-04-11T00:16:02.367Z,7.7
2023-04-11T00:17:01.413Z,7.7
2023-04-11T00:18:01.477Z,7.7
2023-04-11T00:19:01.350Z,7.6
2023-04-11T00:20:01.462Z,7.5
2023-04-11T00:21:01.364Z,7.6
2023-04-11T00:22:01.385Z,7.5
2023-04-11T00:23:01.310Z,7.4
2023-04-11T00:24:01.389Z,7.4
2023-04-11T00:25:02.340Z,7.4
2023-04-11T00:26:02.308Z,7.3
2023-04-11T00:27:02.305Z,7.3
2023-04-11T00:28:02.261Z,7.3
2023-04-11T00:29:02.267Z,7.4
2023-04-11T00:30:02.143Z,7.3
2023-04-11T00:31:02.242Z,7.3
2023-04-11T00:32:02.208Z,7.3
2023-04-11T00:33:02.322Z,7.2
2023-04-11T00:34:02.168Z,7.3
2023-04-11T00:35:02.216Z,7.2
2023-04-11T00:36:02.172Z,7.2
2023-04-11T00:37:02.203Z,7.1
2023-04-11T00:38:02.052Z,7.1
2023-04-11T00:39:02.063Z,7.1
2023-04-11T00:40:02.019Z,7.2
2023-04-11T00:41:01.925Z,7.2
2023-04-11T00:42:01.960Z,7
2023-04-11T00:43:01.864Z,7.1
2023-04-11T00:44:01.800Z,7
2023-04-11T00:45:01.824Z,7
2023-04-11T00:46:01.656Z,7.1
2023-04-11T00:47:02.001Z,7.1
2023-04-11T00:48:02.115Z,7
2023-04-11T00:49:01.969Z,7
2023-04-11T00:50:01.927Z,6.8
2023-04-11T00:51:02.013Z,7
2023-04-11T00:52:01.874Z,6.9
2023-04-11T00:53:01.791Z,6.7
2023-04-11T00:54:01.850Z,6.9
2023-04-11T00:55:01.697Z,7
2023-04-11T00:56:01.752Z,6.9
2023-04-11T00:57:01.597Z,6.9
2023-04-11T00:58:01.657Z,6.7
2023-04-11T00:59:01.531Z,6.8
2023-04-11T01:00:02.108Z,6.8
2023-04-11T01:01:01.898Z,6.9
2023-04-11T01:02:01.700Z,6.8
2023-04-11T01:03:02.010Z,6.7
2023-04-11T01:04:01.620Z,6.6
2023-04-11T01:05:01.903Z,6.5
2023-04-11T01:06:02.056Z,6.6
2023-04-11T01:07:01.811Z,6.5
2023-04-11T01:08:01.770Z,6.5
2023-04-11T01:09:01.832Z,6.5
2023-04-11T01:10:01.687Z,6.5
2023-04-11T01:11:01.722Z,6.5
2023-04-11T01:12:01.653Z,6.5
2023-04-11T01:13:01.597Z,6.5
2023-04-11T01:14:01.469Z,6.5
2023-04-11T01:15:01.550Z,6.7
2023-04-11T01:16:01.420Z,6.7
2023-04-11T01:17:01.555Z,6.6
2023-04-11T01:18:01.953Z,6.5
2023-04-11T01:19:01.283Z,6.7
2023-04-11T01:20:01.368Z,6.6
2023-04-11T01:21:01.277Z,6.6
2023-04-11T01:22:01.379Z,6.7
2023-04-11T01:23:02.377Z,6.6
2023-04-11T01:24:02.238Z,6.6
2023-04-11T01:25:02.342Z,6.6
2023-04-11T01:26:02.122Z,6.6
2023-04-11T01:27:02.237Z,6.6
2023-04-11T01:28:02.102Z,6.5
2023-04-11T01:29:02.136Z,6.4
2023-04-11T01:30:02.021Z,6.4
2023-04-11T01:31:02.079Z,6.5
2023-04-11T01:32:02.216Z,6.5
2023-04-11T01:33:02.319Z,6.5
2023-04-11T01:34:02.177Z,6.6
2023-04-11T01:35:02.315Z,6.5
2023-04-11T01:36:02.134Z,6.6
2023-04-11T01:37:02.208Z,6.7
2023-04-11T01:38:02.057Z,6.8
2023-04-11T01:39:02.145Z,6.8
2023-04-11T01:40:02.007Z,6.7
2023-04-11T01:41:01.987Z,6.6
2023-04-11T01:42:02.002Z,6.5
2023-04-11T01:43:01.916Z,6.6
2023-04-11T01:44:01.808Z,6.6
2023-04-11T01:45:01.800Z,6.5
2023-04-11T01:46:01.679Z,6.5
2023-04-11T01:47:01.644Z,6.4
2023-04-11T01:48:01.791Z,6.5
2023-04-11T01:49:01.815Z,6.5
2023-04-11T01:50:01.685Z,6.5
2023-04-11T01:51:01.707Z,6.4
2023-04-11T01:52:01.587Z,6.4
2023-04-11T01:53:01.666Z,6.3
2023-04-11T01:54:01.545Z,6.3
2023-04-11T01:55:01.568Z,6.3
2023-04-11T01:56:01.426Z,6.3
2023-04-11T01:57:01.446Z,6.3
2023-04-11T01:58:01.310Z,6.3
2023-04-11T01:59:02.368Z,6.1
2023-04-11T02:00:02.230Z,6.3
2023-04-11T02:01:02.351Z,6.4
2023-04-11T02:02:02.152Z,6.4
2023-04-11T02:03:01.598Z,6.4
2023-04-11T02:04:02.025Z,6.4
2023-04-11T02:05:02.078Z,6.4
2023-04-11T02:06:02.150Z,6.4
2023-04-11T02:07:02.025Z,6.1
2023-04-11T02:08:02.039Z,6.2
2023-04-11T02:09:01.942Z,6.1
2023-04-11T02:10:01.832Z,6.2
2023-04-11T02:11:01.872Z,6.2
2023-04-11T02:12:01.729Z,6.2
2023-04-11T02:13:01.760Z,6.3
2023-04-11T02:14:01.646Z,6.3
2023-04-11T02:15:01.672Z,6.2
2023-04-11T02:16:01.505Z,6.2
2023-04-11T02:17:01.427Z,6.2
2023-04-11T02:18:01.465Z,6.3
2023-04-11T02:19:01.338Z,6.1
2023-04-11T02:20:02.367Z,6.3
2023-04-11T02:21:02.260Z,6
2023-04-11T02:22:02.308Z,6.2
2023-04-11T02:23:02.212Z,6.2
2023-04-11T02:24:02.249Z,6.2
2023-04-11T02:25:02.156Z,5.9
2023-04-11T02:26:02.300Z,6
2023-04-11T02:27:02.187Z,6
2023-04-11T02:28:02.264Z,5.9
2023-04-11T02:29:02.155Z,6
2023-04-11T02:30:02.280Z,6
2023-04-11T02:31:02.253Z,6.1
2023-04-11T02:32:01.729Z,6.1
2023-04-11T02:33:01.701Z,6.1
2023-04-11T02:34:01.660Z,6.1
2023-04-11T02:35:01.716Z,6.1
2023-04-11T02:36:01.717Z,6.1
2023-04-11T02:37:01.573Z,6.1
2023-04-11T02:38:01.697Z,5.9
2023-04-11T02:39:01.579Z,5.8
2023-04-11T02:40:01.597Z,5.8
2023-04-11T02:41:01.460Z,5.8
2023-04-11T02:42:01.498Z,5.7
2023-04-11T02:43:01.368Z,5.7
2023-04-11T02:44:01.476Z,5.8
2023-04-11T02:45:01.330Z,5.7
2023-04-11T02:46:09.721Z,5.7
2023-04-11T02:47:02.071Z,5.7
2023-04-11T02:48:02.023Z,5.7
2023-04-11T02:49:02.164Z,5.6
2023-04-11T02:50:02.019Z,5.5
2023-04-11T02:51:01.961Z,5.6
2023-04-11T02:52:02.007Z,5.6
2023-04-11T02:53:01.956Z,5.6
2023-04-11T02:54:01.797Z,5.6
2023-04-11T02:55:01.845Z,5.7
2023-04-11T02:56:01.703Z,5.7
2023-04-11T02:57:01.805Z,5.8
2023-04-11T02:58:01.728Z,5.8
2023-04-11T02:59:01.797Z,5.8
2023-04-11T03:00:02.495Z,5.8
2023-04-11T03:01:01.410Z,5.8
2023-04-11T03:02:01.460Z,5.7
2023-04-11T03:03:01.991Z,5.8
2023-04-11T03:04:02.108Z,5.7
2023-04-11T03:05:02.263Z,5.8
2023-04-11T03:06:02.341Z,5.7
2023-04-11T03:07:02.195Z,5.7
2023-04-11T03:08:02.265Z,5.7
2023-04-11T03:09:02.192Z,5.6
2023-04-11T03:10:02.212Z,5.6
2023-04-11T03:11:02.088Z,5.7
2023-04-11T03:12:02.162Z,5.6
2023-04-11T03:13:02.010Z,5.5
2023-04-11T03:14:02.077Z,5.6
2023-04-11T03:15:01.962Z,5.7
2023-04-11T03:16:01.935Z,5.7
2023-04-11T03:17:01.972Z,5.7
2023-04-11T03:18:02.099Z,5.8
2023-04-11T03:19:01.883Z,5.8
2023-04-11T03:20:01.852Z,5.7
2023-04-11T03:21:01.864Z,5.8
2023-04-11T03:22:01.760Z,5.8
2023-04-11T03:23:01.826Z,5.9
2023-04-11T03:24:01.692Z,5.8
2023-04-11T03:25:01.690Z,5.8
2023-04-11T03:26:01.623Z,5.8
2023-04-11T03:27:01.667Z,5.8
2023-04-11T03:28:01.590Z,5.9
2023-04-11T03:29:01.637Z,5.9
2023-04-11T03:30:01.534Z,5.9
2023-04-11T03:31:01.628Z,5.9
2023-04-11T03:32:01.485Z,5.9
2023-04-11T03:33:01.566Z,6
2023-04-11T03:34:01.436Z,6
2023-04-11T03:35:01.509Z,6.1
2023-04-11T03:36:01.369Z,6.1
2023-04-11T03:37:01.369Z,6
2023-04-11T03:38:01.313Z,6.1
2023-04-11T03:39:01.467Z,6.2
2023-04-11T03:40:01.334Z,6.1
2023-04-11T03:41:02.373Z,6.1
2023-04-11T03:42:02.270Z,6
2023-04-11T03:43:04.282Z,6
2023-04-11T03:44:01.590Z,6.1
2023-04-11T03:45:01.637Z,6.1
2023-04-11T03:46:01.508Z,6.1
2023-04-11T03:47:01.556Z,6.1
2023-04-11T03:48:01.659Z,6.1
2023-04-11T03:49:01.535Z,6.1
2023-04-11T03:50:01.611Z,6.2
2023-04-11T03:51:01.457Z,6.1
2023-04-11T03:52:01.511Z,6.2
2023-04-11T03:53:01.399Z,6.1
2023-04-11T03:54:01.367Z,6.1
2023-04-11T03:55:02.391Z,6
2023-04-11T03:56:02.309Z,6.1
2023-04-11T03:57:02.325Z,6.1
2023-04-11T03:58:02.263Z,6.2
2023-04-11T03:59:02.380Z,6.1
2023-04-11T04:00:02.766Z,6.1
2023-04-11T04:01:01.723Z,6.1
2023-04-11T04:02:02.300Z,6.2
2023-04-11T04:03:01.665Z,6.2
2023-04-11T04:04:02.477Z,6.2
2023-04-11T04:05:02.220Z,6.2
2023-04-11T04:06:02.268Z,6.1
2023-04-11T04:07:01.383Z,6.1
2023-04-11T04:08:01.421Z,6.1
2023-04-11T04:09:01.351Z,6.2
2023-04-11T04:10:01.417Z,6.2
2023-04-11T04:11:02.424Z,6.2
2023-04-11T04:12:02.282Z,6.2
2023-04-11T04:13:02.331Z,6.2
2023-04-11T04:14:02.181Z,6.1
2023-04-11T04:15:02.267Z,6
2023-04-11T04:16:03.605Z,5.9
2023-04-11T04:17:01.869Z,5.9
2023-04-11T04:18:02.012Z,5.9
2023-04-11T04:19:01.791Z,5.9
2023-04-11T04:20:01.884Z,5.9
2023-04-11T04:21:01.772Z,5.9
2023-04-11T04:22:01.851Z,6.1
2023-04-11T04:23:01.713Z,6
2023-04-11T04:24:01.810Z,6.1
2023-04-11T04:25:01.666Z,6.1
2023-04-11T04:26:01.727Z,6.1
2023-04-11T04:27:01.641Z,6.1
2023-04-11T04:28:01.697Z,6
2023-04-11T04:29:01.583Z,6.1
2023-04-11T04:30:03.856Z,6.1
2023-04-11T04:31:01.388Z,6
2023-04-11T04:32:01.735Z,6
2023-04-11T04:33:01.878Z,5.9
2023-04-11T04:34:01.738Z,6.1
2023-04-11T04:35:01.822Z,6.1
2023-04-11T04:36:01.715Z,6.2
2023-04-11T04:37:01.824Z,6.2
2023-04-11T04:38:01.711Z,6.3
2023-04-11T04:39:01.874Z,6.2
2023-04-11T04:40:01.661Z,6.3
2023-04-11T04:41:01.773Z,6.3
2023-04-11T04:42:01.661Z,6.2
2023-04-11T04:43:01.750Z,6.3
2023-04-11T04:44:01.352Z,6.3
2023-04-11T04:45:01.476Z,6.2
2023-04-11T04:46:01.359Z,6.2
2023-04-11T04:47:01.545Z,6.2
2023-04-11T04:48:01.696Z,6.2
2023-04-11T04:49:02.399Z,6.2
2023-04-11T04:50:01.257Z,6.4
2023-04-11T04:51:02.391Z,6.3
2023-04-11T04:52:02.309Z,6.3
2023-04-11T04:53:01.370Z,6.2
2023-04-11T04:54:01.322Z,6.1
2023-04-11T04:55:01.469Z,6.2
2023-04-11T04:56:01.454Z,6.3
2023-04-11T04:57:01.473Z,6.3
2023-04-11T04:58:01.427Z,6.3
2023-04-11T04:59:01.504Z,6.4
2023-04-11T05:00:02.713Z,6.4
2023-04-11T05:01:01.665Z,6.3
2023-04-11T05:02:01.691Z,6.4
2023-04-11T05:03:01.860Z,6.5
2023-04-11T05:04:02.835Z,6.5
2023-04-11T05:05:01.366Z,6.4
2023-04-11T05:06:01.462Z,6.3
2023-04-11T05:07:01.413Z,6.4
2023-04-11T05:08:01.543Z,6.4
2023-04-11T05:09:01.481Z,6.4
2023-04-11T05:10:01.603Z,6.4
2023-04-11T05:11:01.351Z,6.3
2023-04-11T05:12:01.517Z,6.3
2023-04-11T05:13:01.361Z,6.4
2023-04-11T05:14:01.468Z,6.5
2023-04-11T05:15:01.440Z,6.5
2023-04-11T05:16:01.503Z,6.5
2023-04-11T05:17:01.419Z,6.5
2023-04-11T05:18:01.494Z,6.6
2023-04-11T05:19:01.461Z,6.6
2023-04-11T05:20:01.533Z,6.6
2023-04-11T05:21:01.516Z,6.7
2023-04-11T05:22:01.354Z,6.7
2023-04-11T05:23:01.353Z,6.8
2023-04-11T05:24:01.484Z,6.8
2023-04-11T05:25:01.359Z,6.8
2023-04-11T05:26:01.480Z,6.8
2023-04-11T05:27:01.461Z,6.9
2023-04-11T05:28:01.531Z,7
2023-04-11T05:29:01.461Z,7.1
2023-04-11T05:30:01.614Z,7.1
2023-04-11T05:31:01.512Z,7
2023-04-11T05:32:01.801Z,7.1
2023-04-11T05:33:01.950Z,7.2
2023-04-11T05:34:01.814Z,7.2
2023-04-11T05:35:01.785Z,7.3
2023-04-11T05:36:01.939Z,7.1
2023-04-11T05:37:01.777Z,7
2023-04-11T05:38:01.846Z,7.3
2023-04-11T05:39:01.910Z,7.3
2023-04-11T05:40:01.755Z,7.3
2023-04-11T05:41:01.891Z,7.4
2023-04-11T05:42:01.809Z,7.4
2023-04-11T05:43:01.828Z,7.5
2023-04-11T05:44:01.893Z,7.6
2023-04-11T05:45:01.839Z,7.6
2023-04-11T05:46:01.917Z,7.7
2023-04-11T05:47:02.072Z,7.7
2023-04-11T05:48:02.215Z,7.8
2023-04-11T05:49:02.163Z,7.8
2023-04-11T05:50:02.226Z,7.8
2023-04-11T05:51:02.132Z,7.7
2023-04-11T05:52:02.222Z,7.9
2023-04-11T05:53:02.180Z,7.9
2023-04-11T05:54:02.252Z,8
2023-04-11T05:55:02.172Z,8.2
2023-04-11T05:56:02.266Z,8.3
2023-04-11T05:57:02.197Z,8.4
2023-04-11T05:58:02.323Z,8.6
2023-04-11T05:59:02.228Z,8.5
2023-04-11T06:00:03.111Z,8.6
2023-04-11T06:01:01.952Z,8.7
2023-04-11T06:02:01.986Z,8.7
2023-04-11T06:03:02.041Z,8.8
2023-04-11T06:04:02.546Z,8.7
2023-04-11T06:05:02.144Z,8.7
2023-04-11T06:06:02.249Z,8.9
2023-04-11T06:07:02.261Z,8.9
2023-04-11T06:08:02.270Z,9
2023-04-11T06:09:02.150Z,9
2023-04-11T06:10:02.302Z,9
2023-04-11T06:11:02.162Z,8.9
2023-04-11T06:12:02.280Z,8.7
2023-04-11T06:13:02.206Z,8.7
2023-04-11T06:14:02.376Z,8.5
2023-04-11T06:15:02.290Z,8.4
2023-04-11T06:16:02.427Z,8.5
2023-04-11T06:17:01.649Z,8.3
2023-04-11T06:18:01.844Z,8.4
2023-04-11T06:19:01.767Z,8.3
2023-04-11T06:20:03.587Z,8.4
2023-04-11T06:21:01.739Z,8.5
2023-04-11T06:22:01.844Z,8.6
2023-04-11T06:23:01.745Z,8.6
2023-04-11T06:24:01.809Z,8.6
2023-04-11T06:25:01.702Z,8.3
2023-04-11T06:26:01.820Z,8.4
2023-04-11T06:27:01.684Z,8.3
2023-04-11T06:28:01.730Z,8.4
2023-04-11T06:29:01.674Z,8.2
2023-04-11T06:30:01.703Z,8.2
2023-04-11T06:31:01.678Z,8.2
2023-04-11T06:32:01.886Z,8.3
2023-04-11T06:33:02.028Z,8.3
2023-04-11T06:34:01.895Z,8.5
2023-04-11T06:35:01.877Z,8.5
2023-04-11T06:36:03.122Z,8.6
2023-04-11T06:37:01.837Z,8.5
2023-04-11T06:38:01.837Z,8.5
2023-04-11T06:39:01.942Z,8.5
2023-04-11T06:40:01.815Z,8.5
2023-04-11T06:41:01.897Z,8.5
2023-04-11T06:42:01.830Z,8.7
2023-04-11T06:43:01.817Z,8.7
2023-04-11T06:44:01.790Z,8.6
2023-04-11T06:45:02.000Z,8.5
2023-04-11T06:46:01.816Z,8.6
2023-04-11T06:47:02.035Z,8.6
2023-04-11T06:48:02.142Z,8.4
2023-04-11T06:49:01.999Z,8.7
2023-04-11T06:50:02.053Z,8.7
2023-04-11T06:51:02.081Z,8.8
2023-04-11T06:52:02.064Z,9.1
2023-04-11T06:53:01.947Z,9.2
2023-04-11T06:54:02.047Z,9.2
2023-04-11T06:55:01.933Z,9.2
2023-04-11T06:56:01.934Z,9.4
2023-04-11T06:57:02.001Z,9.4
2023-04-11T06:58:01.891Z,9.6
2023-04-11T06:59:01.887Z,9.4
2023-04-11T07:00:02.928Z,9.6
2023-04-11T07:01:01.855Z,9.5
2023-04-11T07:02:02.205Z,9.7
2023-04-11T07:03:01.488Z,9.6
2023-04-11T07:04:01.968Z,9.5
2023-04-11T07:05:01.428Z,9.5
2023-04-11T07:06:01.764Z,9.6
2023-04-11T07:07:01.658Z,9.6
2023-04-11T07:08:01.706Z,9.7
2023-04-11T07:09:01.839Z,9.7
2023-04-11T07:10:01.691Z,9.7
2023-04-11T07:11:01.778Z,9.8
2023-04-11T07:12:01.689Z,9.8
2023-04-11T07:13:01.742Z,9.8
2023-04-11T07:14:01.721Z,9.8
2023-04-11T07:15:01.795Z,10
2023-04-11T07:16:01.791Z,10.2
2023-04-11T07:17:01.873Z,10.3
2023-04-11T07:18:02.027Z,10.1
2023-04-11T07:19:01.933Z,10.2
2023-04-11T07:20:02.005Z,10.2
2023-04-11T07:21:02.005Z,10.3
2023-04-11T07:22:01.892Z,10.5
2023-04-11T07:23:01.874Z,10.6
2023-04-11T07:24:02.026Z,10.5
2023-04-11T07:25:01.859Z,10.4
2023-04-11T07:26:01.841Z,10.5
2023-04-11T07:27:01.951Z,10.6
2023-04-11T07:28:01.819Z,10.6
2023-04-11T07:29:01.808Z,10.4
2023-04-11T07:30:01.898Z,10.5
2023-04-11T07:31:01.812Z,10.6
2023-04-11T07:32:01.951Z,10.6
2023-04-11T07:33:02.307Z,10.5
2023-04-11T07:34:02.185Z,10.5
2023-04-11T07:35:02.317Z,10.7
2023-04-11T07:36:02.233Z,10.7
2023-04-11T07:37:02.311Z,10.8
2023-04-11T07:38:02.237Z,10.7
2023-04-11T07:39:02.323Z,10.8
2023-04-11T07:40:02.290Z,10.9
2023-04-11T07:41:02.366Z,11.1
2023-04-11T07:42:02.287Z,11.2
2023-04-11T07:43:02.413Z,11.2
2023-04-11T07:44:02.286Z,11
2023-04-11T07:45:02.404Z,10.9
2023-04-11T07:46:01.337Z,10.8
2023-04-11T07:47:01.464Z,10.8
2023-04-11T07:48:01.580Z,10.9
2023-04-11T07:49:01.498Z,10.9
2023-04-11T07:50:01.489Z,11
2023-04-11T07:51:01.408Z,10.8
2023-04-11T07:52:01.547Z,10.7
2023-04-11T07:53:01.396Z,10.8
2023-04-11T07:54:01.448Z,10.9
2023-04-11T07:55:01.438Z,11
2023-04-11T07:56:01.505Z,11.1
2023-04-11T07:57:01.304Z,11.1
2023-04-11T07:58:01.369Z,11.3
2023-04-11T07:59:02.421Z,11.3
2023-04-11T08:00:04.152Z,11
2023-04-11T08:01:02.096Z,11.2
2023-04-11T08:02:01.602Z,11
2023-04-11T08:03:01.667Z,11
2023-04-11T08:04:02.254Z,11
2023-04-11T08:05:01.675Z,11
2023-04-11T08:06:02.095Z,10.9
2023-04-11T08:07:02.061Z,11
2023-04-11T08:08:01.939Z,11.1
2023-04-11T08:09:02.026Z,11.1
2023-04-11T08:10:01.942Z,11.2
2023-04-11T08:11:01.892Z,11.2
2023-04-11T08:12:02.009Z,11.4
2023-04-11T08:13:01.869Z,11.3
2023-04-11T08:14:01.915Z,11.2
2023-04-11T08:15:01.915Z,11.2
2023-04-11T08:16:01.864Z,11.4
2023-04-11T08:17:02.108Z,11.4
2023-04-11T08:18:02.193Z,11.6
2023-04-11T08:19:02.065Z,11.4
2023-04-11T08:20:02.558Z,11.5
2023-04-11T08:21:01.466Z,11.3
2023-04-11T08:22:01.557Z,11.3
2023-04-11T08:23:01.427Z,11.5
2023-04-11T08:24:02.262Z,11.7
2023-04-11T08:25:02.380Z,11.7
2023-04-11T08:26:02.274Z,11.5
2023-04-11T08:27:01.377Z,11.5
2023-04-11T08:28:02.390Z,11.6
2023-04-11T08:29:01.308Z,11.7
2023-04-11T08:30:01.361Z,11.8
2023-04-11T08:31:02.410Z,12
2023-04-11T08:32:01.403Z,12.1
2023-04-11T08:33:01.538Z,12
2023-04-11T08:34:02.738Z,12.1
2023-04-11T08:35:02.105Z,12.1
2023-04-11T08:36:02.315Z,12.4
2023-04-11T08:37:02.148Z,12.6
2023-04-11T08:38:02.243Z,12.8
2023-04-11T08:39:02.218Z,12.6
2023-04-11T08:40:02.648Z,12.8
2023-04-11T08:41:01.410Z,12.9
2023-04-11T08:42:01.427Z,13.2
2023-04-11T08:43:01.516Z,13.3
2023-04-11T08:44:01.397Z,13.4
2023-04-11T08:45:02.473Z,13.4
2023-04-11T08:46:01.443Z,13.7
2023-04-11T08:47:01.731Z,13.5
2023-04-11T08:48:01.876Z,13.8
2023-04-11T08:49:01.798Z,13.8
2023-04-11T08:50:01.806Z,13.8
2023-04-11T08:51:01.875Z,14
2023-04-11T08:52:01.777Z,13.8
2023-04-11T08:53:01.749Z,14.1
2023-04-11T08:54:01.891Z,14.1
2023-04-11T08:55:01.785Z,14.1
2023-04-11T08:56:01.720Z,14.2
2023-04-11T08:57:01.820Z,13.5
2023-04-11T08:58:01.697Z,13.5
2023-04-11T08:59:01.768Z,13.6
2023-04-11T09:00:01.774Z,13.8
2023-04-11T09:01:01.753Z,13.7
2023-04-11T09:02:02.040Z,13.8
2023-04-11T09:03:02.298Z,14
2023-04-11T09:04:01.557Z,13.5
2023-04-11T09:05:01.613Z,13.6
2023-04-11T09:06:01.543Z,13.6
2023-04-11T09:07:01.596Z,13.8
2023-04-11T09:08:01.589Z,13.5
2023-04-11T09:09:01.691Z,13.5
2023-04-11T09:10:01.493Z,13.6
2023-04-11T09:11:01.588Z,13.6
2023-04-11T09:12:01.465Z,13.6
2023-04-11T09:13:01.535Z,13.7
2023-04-11T09:14:01.468Z,13.8
2023-04-11T09:15:01.393Z,13.5
2023-04-11T09:16:01.426Z,13.7
2023-04-11T09:17:02.099Z,13.7
2023-04-11T09:18:02.261Z,13.7
2023-04-11T09:19:02.187Z,13.5
2023-04-11T09:20:02.320Z,13.6
2023-04-11T09:21:02.260Z,13.7
2023-04-11T09:22:02.401Z,13.9
2023-04-11T09:23:02.270Z,13.8
2023-04-11T09:24:02.359Z,13.8
2023-04-11T09:25:02.310Z,13.9
2023-04-11T09:26:01.352Z,14
2023-04-11T09:27:02.375Z,14.1
2023-04-11T09:28:01.311Z,14.3
2023-04-11T09:29:01.572Z,14.3
2023-04-11T09:30:01.254Z,14.3
2023-04-11T09:31:02.383Z,14
2023-04-11T09:32:01.490Z,13.9
2023-04-11T09:33:01.621Z,14
2023-04-11T09:34:01.504Z,14
2023-04-11T09:35:01.602Z,14.1
2023-04-11T09:36:01.462Z,14.3
2023-04-11T09:37:01.521Z,14.4
2023-04-11T09:38:01.409Z,14.2
2023-04-11T09:39:01.493Z,14.2
2023-04-11T09:40:01.431Z,14.1
2023-04-11T09:41:02.277Z,13.9
2023-04-11T09:42:02.365Z,13.9
2023-04-11T09:43:02.278Z,14.2
2023-04-11T09:44:02.464Z,14.4
2023-04-11T09:45:02.299Z,14.6
2023-04-11T09:46:02.396Z,14.2
2023-04-11T09:47:01.620Z,14.3
2023-04-11T09:48:01.711Z,14.5
2023-04-11T09:49:01.940Z,14.4
2023-04-11T09:50:01.923Z,14.6
2023-04-11T09:51:02.052Z,14.7
2023-04-11T09:52:01.899Z,14.7
2023-04-11T09:53:01.924Z,14.4
2023-04-11T09:54:02.027Z,14.4
2023-04-11T09:55:01.875Z,14.4
2023-04-11T09:56:01.980Z,14.2
2023-04-11T09:57:01.976Z,14.5
2023-04-11T09:58:01.966Z,14.7
2023-04-11T09:59:02.013Z,14.6
2023-04-11T10:00:02.102Z,14.8
2023-04-11T10:01:02.028Z,15.1
2023-04-11T10:02:02.282Z,15.3
2023-04-11T10:03:02.528Z,15
2023-04-11T10:04:02.091Z,14.9
2023-04-11T10:05:02.312Z,14.4
2023-04-11T10:06:02.226Z,14.8
2023-04-11T10:07:02.355Z,14.7
2023-04-11T10:08:02.232Z,14.7
2023-04-11T10:09:02.352Z,15.2
2023-04-11T10:10:02.344Z,15.3
2023-04-11T10:11:02.291Z,15.1
2023-04-11T10:12:02.274Z,15.4
2023-04-11T10:13:02.380Z,15.4
2023-04-11T10:14:02.336Z,15.3
2023-04-11T10:15:01.309Z,15.3
2023-04-11T10:16:02.403Z,15.4
2023-04-11T10:17:01.572Z,15.7
2023-04-11T10:18:01.604Z,15.9
2023-04-11T10:19:01.544Z,15.6
2023-04-11T10:20:01.562Z,15.5
2023-04-11T10:21:01.412Z,15.6
2023-04-11T10:22:01.526Z,15.8
2023-04-11T10:23:01.398Z,15.5
2023-04-11T10:24:01.824Z,15.4
2023-04-11T10:25:01.479Z,15.7
2023-04-11T10:26:01.577Z,15.6
2023-04-11T10:27:01.469Z,15.5
2023-04-11T10:28:01.628Z,15
2023-04-11T10:29:01.378Z,15.1
2023-04-11T10:30:01.427Z,15.2
2023-04-11T10:31:01.367Z,14.9
2023-04-11T10:32:02.209Z,14.8
2023-04-11T10:33:02.214Z,15.2
2023-04-11T10:34:02.109Z,15.1
2023-04-11T10:35:02.193Z,15.1
2023-04-11T10:36:02.190Z,14.9
2023-04-11T10:37:02.122Z,15
2023-04-11T10:38:02.009Z,15.1
2023-04-11T10:39:02.098Z,15.1
2023-04-11T10:40:02.106Z,15.4
2023-04-11T10:41:02.016Z,15.5
2023-04-11T10:42:02.085Z,15.5
2023-04-11T10:43:02.247Z,15.2
2023-04-11T10:44:02.220Z,15.4
2023-04-11T10:45:02.321Z,15.6
2023-04-11T10:46:02.275Z,15.6
2023-04-11T10:47:01.479Z,15.7
2023-04-11T10:48:01.567Z,15.9
2023-04-11T10:49:01.436Z,16
2023-04-11T10:50:01.474Z,16
2023-04-11T10:51:01.351Z,15.8
2023-04-11T10:52:01.438Z,15.5
2023-04-11T10:53:01.339Z,15.6
2023-04-11T10:54:02.020Z,15.5
2023-04-11T10:55:02.078Z,16
2023-04-11T10:56:02.086Z,16.1
2023-04-11T10:57:02.175Z,16
2023-04-11T10:58:02.068Z,16.1
2023-04-11T10:59:02.170Z,16
2023-04-11T11:00:02.118Z,16.1
2023-04-11T11:01:02.188Z,16.3
2023-04-11T11:02:01.614Z,16.3
2023-04-11T11:03:01.541Z,16.4
2023-04-11T11:04:01.918Z,16.7
2023-04-11T11:05:01.659Z,16.4
2023-04-11T11:06:01.654Z,16.4
2023-04-11T11:07:01.740Z,16.4
2023-04-11T11:08:01.841Z,15.8
2023-04-11T11:09:01.949Z,16.2
2023-04-11T11:10:01.856Z,16.2
2023-04-11T11:11:01.820Z,16.2
2023-04-11T11:12:01.905Z,16.3
2023-04-11T11:13:01.780Z,16.6
2023-04-11T11:14:01.896Z,16.8
2023-04-11T11:15:01.791Z,16.5
2023-04-11T11:16:01.795Z,16.6
2023-04-11T11:17:02.142Z,16.3
2023-04-11T11:18:02.237Z,16.4
2023-04-11T11:19:02.090Z,16.4
2023-04-11T11:20:02.218Z,16.5
2023-04-11T11:21:02.071Z,16.5
2023-04-11T11:22:02.202Z,16.8
2023-04-11T11:23:02.119Z,16.7
2023-04-11T11:24:02.256Z,16.3
2023-04-11T11:25:02.233Z,16.1
2023-04-11T11:26:02.396Z,16.7
2023-04-11T11:27:01.331Z,16.4
2023-04-11T11:28:01.413Z,16.7
2023-04-11T11:29:02.407Z,16.8
2023-04-11T11:30:01.336Z,17
2023-04-11T11:31:01.420Z,17.2
2023-04-11T11:32:01.384Z,17.2
2023-04-11T11:33:01.471Z,16.8
2023-04-11T11:34:13.775Z,17.1
2023-04-11T11:35:01.814Z,16.9
2023-04-11T11:36:01.920Z,16.7
2023-04-11T11:37:01.917Z,16.8
2023-04-11T11:38:01.892Z,17
2023-04-11T11:39:02.007Z,16.8
2023-04-11T11:40:01.880Z,16.5
2023-04-11T11:41:01.895Z,16.6
2023-04-11T11:42:01.954Z,16.8
2023-04-11T11:43:01.901Z,16.9
2023-04-11T11:44:01.887Z,17.4
2023-04-11T11:45:01.987Z,17.4
2023-04-11T11:46:01.961Z,17.5
2023-04-11T11:47:02.231Z,17.4
2023-04-11T11:48:02.353Z,17.7
2023-04-11T11:49:01.688Z,17.5
2023-04-11T11:50:01.825Z,17.3
2023-04-11T11:51:01.699Z,17.4
2023-04-11T11:52:01.824Z,17.4
2023-04-11T11:53:01.740Z,16.7
2023-04-11T11:54:01.827Z,17.2
2023-04-11T11:55:01.709Z,17.8
2023-04-11T11:56:01.791Z,17.8
2023-04-11T11:57:01.718Z,17.5
2023-04-11T11:58:01.714Z,17.2
2023-04-11T11:59:01.584Z,17.2
2023-04-11T12:00:02.725Z,17.3
2023-04-11T12:01:01.632Z,17.4
2023-04-11T12:02:01.914Z,17.3
2023-04-11T12:03:02.006Z,17.1
2023-04-11T12:04:02.731Z,17.3
2023-04-11T12:05:02.101Z,17.1
2023-04-11T12:06:02.175Z,16.9
2023-04-11T12:07:01.992Z,16.9
2023-04-11T12:08:01.972Z,16.7
2023-04-11T12:09:02.056Z,17
2023-04-11T12:10:01.939Z,17.4
2023-04-11T12:11:01.880Z,17.2
2023-04-11T12:12:01.954Z,17.3
2023-04-11T12:13:01.846Z,17.1
2023-04-11T12:14:01.798Z,16.9
2023-04-11T12:15:01.832Z,17.3
2023-04-11T12:16:01.804Z,17.4
2023-04-11T12:17:01.908Z,17.8
2023-04-11T12:18:01.984Z,17.8
2023-04-11T12:19:01.893Z,18.1
2023-04-11T12:20:01.797Z,18.3
2023-04-11T12:21:01.858Z,17.7
2023-04-11T12:22:01.718Z,18.3
2023-04-11T12:23:01.788Z,17.9
2023-04-11T12:24:01.696Z,18.1
2023-04-11T12:25:01.730Z,18.1
2023-04-11T12:26:01.622Z,17.8
2023-04-11T12:27:06.656Z,17.6
2023-04-11T12:28:01.625Z,17
2023-04-11T12:29:01.679Z,17.1
2023-04-11T12:30:01.525Z,16.9
2023-04-11T12:31:01.609Z,16.8
2023-04-11T12:32:01.745Z,17.1
2023-04-11T12:33:01.764Z,16.8
2023-04-11T12:34:01.653Z,16.9
2023-04-11T12:35:01.684Z,16.7
2023-04-11T12:36:01.546Z,16.7
2023-04-11T12:37:01.613Z,16.9
2023-04-11T12:38:01.481Z,17
2023-04-11T12:39:01.493Z,16.7
2023-04-11T12:40:01.325Z,16.8
2023-04-11T12:41:20.211Z,17.1
2023-04-11T12:42:02.308Z,17
2023-04-11T12:43:02.320Z,17
2023-04-11T12:44:02.244Z,17.2
2023-04-11T12:45:02.260Z,17.3
2023-04-11T12:46:02.169Z,17.3
2023-04-11T12:47:01.489Z,17.6
2023-04-11T12:48:01.541Z,17.6
2023-04-11T12:49:01.387Z,18
2023-04-11T12:50:01.422Z,18
2023-04-11T12:51:02.392Z,17.5
2023-04-11T12:52:02.222Z,17.3
2023-04-11T12:53:02.331Z,17.6
2023-04-11T12:54:02.178Z,17.3
2023-04-11T12:55:02.230Z,17.4
2023-04-11T12:56:02.178Z,17.4
2023-04-11T12:57:02.138Z,17.4
2023-04-11T12:58:02.037Z,17.6
2023-04-11T12:59:02.087Z,17.7
2023-04-11T13:00:03.152Z,18.1
2023-04-11T13:01:02.027Z,17.7
2023-04-11T13:02:02.091Z,17.7
2023-04-11T13:03:01.655Z,17.8
2023-04-11T13:04:02.153Z,17.7
2023-04-11T13:05:01.565Z,18
2023-04-11T13:06:01.656Z,18.5
2023-04-11T13:07:01.575Z,18.2
2023-04-11T13:08:01.565Z,18
2023-04-11T13:09:01.403Z,18.2
2023-04-11T13:10:01.498Z,17.9
2023-04-11T13:11:01.404Z,18
2023-04-11T13:12:01.503Z,17.9
2023-04-11T13:13:08.634Z,17.8
2023-04-11T13:14:01.342Z,17.9
2023-04-11T13:15:01.435Z,17.6
2023-04-11T13:16:02.460Z,17.9
2023-04-11T13:17:01.456Z,17.9
2023-04-11T13:18:01.508Z,17.9
2023-04-11T13:19:01.544Z,17.6
2023-04-11T13:20:01.627Z,17.8
2023-04-11T13:21:01.504Z,17.7
2023-04-11T13:22:01.549Z,17.5
2023-04-11T13:23:01.426Z,18
2023-04-11T13:24:01.435Z,17.8
2023-04-11T13:25:01.338Z,17.9
2023-04-11T13:26:01.405Z,17.9
2023-04-11T13:27:01.285Z,17.9
2023-04-11T13:28:01.379Z,17.6
2023-04-11T13:29:02.375Z,17.4
2023-04-11T13:30:02.265Z,17.6
2023-04-11T13:31:02.274Z,17.5
2023-04-11T13:32:02.284Z,17.2
2023-04-11T13:33:02.301Z,17.2
2023-04-11T13:34:02.156Z,17
2023-04-11T13:35:02.196Z,17.1
2023-04-11T13:36:02.103Z,17.2
2023-04-11T13:37:02.198Z,16.9